Time;durP1;ratioP1;P1;durP2;ratioP2;P2;SDS_P1;SDS_P2;PMS_P1;PMS_P2;Temp;Humidity;BMP_temperature;BMP_pressure;BME280_temperature;BME280_humidity;BME280_pressure;Samples;Min_cycle;Max_cycle;Signal;HPM_P1;HPM_P2
2022/11/23 02:38:00;;;;;;;1999.90;999.90;;;;;;;;;;5714862;22;20468;-74
2022/11/23 02:40:46;;;;;;;1999.90;999.90;;;;;;;;;;5009762;28;20220;-76
2022/11/23 02:43:31;;;;;;;1999.90;999.90;;;;;;;;;;5014891;28;20583;-75
2022/11/23 02:46:16;;;;;;;1999.90;999.90;;;;;;;;;;5009513;28;20450;-73
2022/11/23 02:49:01;;;;;;;1999.90;999.90;;;;;;;;;;5006731;28;20416;-75
2022/11/23 02:51:46;;;;;;;1999.90;999.90;;;;;;;;;;5014582;28;20219;-75
2022/11/23 02:54:33;;;;;;;1999.90;999.90;;;;;;;;;;5014635;28;20207;-74
2022/11/23 02:57:18;;;;;;;1999.90;999.90;;;;;;;;;;5014796;28;20226;-74
2022/11/23 03:00:04;;;;;;;1999.90;999.90;;;;;;;;;;5012703;28;20778;-75
2022/11/23 03:02:49;;;;;;;1999.90;999.90;;;;;;;;;;5014569;28;20311;-75
2022/11/23 03:05:34;;;;;;;1999.90;999.90;;;;;;;;;;5014290;28;20577;-75
2022/11/23 03:08:19;;;;;;;1999.90;999.90;;;;;;;;;;5014558;28;20238;-75
2022/11/23 03:11:05;;;;;;;1999.90;999.90;;;;;;;;;;5014681;28;20284;-75
2022/11/23 03:13:50;;;;;;;1999.90;999.90;;;;;;;;;;5014360;28;20687;-75
2022/11/23 03:16:35;;;;;;;1999.90;999.90;;;;;;;;;;5014261;28;20264;-75
2022/11/23 03:19:19;;;;;;;1999.90;999.90;;;;;;;;;;5014513;28;20214;-75
2022/11/23 03:22:04;;;;;;;1999.90;999.90;;;;;;;;;;5014744;28;20261;-75
2022/11/23 03:24:49;;;;;;;1999.90;999.90;;;;;;;;;;5012784;28;20282;-74
2022/11/23 03:27:37;;;;;;;1999.90;999.90;;;;;;;;;;5004220;28;20358;-76
2022/11/23 03:30:22;;;;;;;1999.90;999.90;;;;;;;;;;4993922;28;20207;-74
2022/11/23 03:33:07;;;;;;;1999.90;999.90;;;;;;;;;;4993652;28;20266;-74
2022/11/23 03:35:53;;;;;;;1999.90;999.90;;;;;;;;;;4993297;28;20202;-74
2022/11/23 03:38:37;;;;;;;1999.90;999.90;;;;;;;;;;5005565;28;20242;-74
2022/11/23 03:41:22;;;;;;;1999.90;999.90;;;;;;;;;;5011956;28;20242;-74
2022/11/23 03:44:08;;;;;;;1999.90;999.90;;;;;;;;;;5002485;28;20219;-77
2022/11/23 03:46:53;;;;;;;1999.90;999.90;;;;;;;;;;4993380;28;20346;-74
2022/11/23 03:49:38;;;;;;;1999.90;999.90;;;;;;;;;;4993686;28;20286;-74
2022/11/23 03:52:23;;;;;;;1999.90;999.90;;;;;;;;;;5011996;28;20728;-72
2022/11/23 03:55:08;;;;;;;1999.90;999.90;;;;;;;;;;5009720;28;20747;-74
2022/11/23 03:57:58;;;;;;;1999.90;999.90;;;;;;;;;;5001827;28;20270;-73
2022/11/23 04:00:44;;;;;;;1999.90;999.90;;;;;;;;;;4997137;28;20289;-74
2022/11/23 04:03:29;;;;;;;1999.90;999.90;;;;;;;;;;5007033;28;20203;-74
2022/11/23 04:06:14;;;;;;;1999.90;999.90;;;;;;;;;;5004089;28;20585;-74
2022/11/23 04:08:59;;;;;;;1999.90;999.90;;;;;;;;;;4996098;28;20605;-73
2022/11/23 04:11:44;;;;;;;1999.90;999.90;;;;;;;;;;5001851;28;20211;-74
2022/11/23 04:14:29;;;;;;;1999.90;999.90;;;;;;;;;;5002047;28;20234;-74
2022/11/23 04:17:15;;;;;;;1999.90;999.90;;;;;;;;;;5002208;28;20242;-74
2022/11/23 04:20:00;;;;;;;1999.90;999.90;;;;;;;;;;5000396;28;20715;-74
2022/11/23 04:22:45;;;;;;;1999.90;999.90;;;;;;;;;;5001708;28;20732;-74
2022/11/23 04:25:29;;;;;;;1999.90;999.90;;;;;;;;;;5000729;28;20213;-74
2022/11/23 04:28:14;;;;;;;1999.90;999.90;;;;;;;;;;5001522;28;20234;-74
2022/11/23 04:30:59;;;;;;;1999.90;999.90;;;;;;;;;;5001663;28;20765;-74
2022/11/23 04:33:45;;;;;;;1999.90;999.90;;;;;;;;;;4993127;28;20281;-74
2022/11/23 04:36:30;;;;;;;1999.90;999.90;;;;;;;;;;5001203;28;20218;-74
2022/11/23 04:39:15;;;;;;;1999.90;999.90;;;;;;;;;;4995285;28;20218;-74
2022/11/23 04:42:00;;;;;;;1999.90;999.90;;;;;;;;;;5000619;28;20407;-74
2022/11/23 04:44:45;;;;;;;1999.90;999.90;;;;;;;;;;4996660;28;20215;-73
2022/11/23 04:47:30;;;;;;;1999.90;999.90;;;;;;;;;;5006420;28;20236;-74
2022/11/23 04:50:17;;;;;;;1999.90;999.90;;;;;;;;;;5008501;28;20208;-74
2022/11/23 04:53:02;;;;;;;1999.90;999.90;;;;;;;;;;5010201;28;20773;-74
2022/11/23 04:55:47;;;;;;;1999.90;999.90;;;;;;;;;;5000891;28;20273;-74
2022/11/23 04:58:32;;;;;;;1999.90;999.90;;;;;;;;;;4995745;28;20240;-71
2022/11/23 05:01:17;;;;;;;1999.90;999.90;;;;;;;;;;5001157;28;20203;-74
2022/11/23 05:04:01;;;;;;;1999.90;999.90;;;;;;;;;;4999512;28;20685;-75
2022/11/23 05:06:48;;;;;;;1999.90;999.90;;;;;;;;;;5000712;28;20215;-74
2022/11/23 05:09:32;;;;;;;1999.90;999.90;;;;;;;;;;5000376;28;20310;-73
2022/11/23 05:12:17;;;;;;;1999.90;999.90;;;;;;;;;;5000693;28;20726;-74
2022/11/23 05:15:02;;;;;;;1999.90;999.90;;;;;;;;;;5000408;28;20215;-77
2022/11/23 05:17:47;;;;;;;1999.90;999.90;;;;;;;;;;4992785;28;20235;-73
2022/11/23 05:20:32;;;;;;;1999.90;999.90;;;;;;;;;;5000763;28;20290;-77
2022/11/23 05:23:19;;;;;;;1999.90;999.90;;;;;;;;;;4997560;28;20440;-75
2022/11/23 05:26:04;;;;;;;1999.90;999.90;;;;;;;;;;5003806;28;20283;-74
2022/11/23 05:28:48;;;;;;;1999.90;999.90;;;;;;;;;;5003573;28;20237;-76
2022/11/23 05:31:33;;;;;;;1999.90;999.90;;;;;;;;;;5006140;28;20210;-73
2022/11/23 05:34:18;;;;;;;1999.90;999.90;;;;;;;;;;5009575;28;20852;-75
2022/11/23 05:37:03;;;;;;;1999.90;999.90;;;;;;;;;;4994138;28;20211;-75
2022/11/23 05:39:49;;;;;;;1999.90;999.90;;;;;;;;;;5000615;28;20221;-76
2022/11/23 05:42:34;;;;;;;1999.90;999.90;;;;;;;;;;4995386;28;20338;-76
2022/11/23 05:45:19;;;;;;;1999.90;999.90;;;;;;;;;;4999242;28;20511;-75
2022/11/23 05:48:04;;;;;;;1999.90;999.90;;;;;;;;;;4998243;28;20234;-76
2022/11/23 05:50:50;;;;;;;1999.90;999.90;;;;;;;;;;5000171;28;20206;-76
2022/11/23 05:53:35;;;;;;;1999.90;999.90;;;;;;;;;;5008847;28;20241;-76
2022/11/23 05:56:21;;;;;;;1999.90;999.90;;;;;;;;;;5007857;28;20214;-76
2022/11/23 05:59:06;;;;;;;1999.90;999.90;;;;;;;;;;5006675;28;20629;-76
2022/11/23 06:01:51;;;;;;;1999.90;999.90;;;;;;;;;;5013544;28;20213;-75
2022/11/23 06:04:36;;;;;;;1999.90;999.90;;;;;;;;;;5003940;28;20214;-75
2022/11/23 06:07:21;;;;;;;1999.90;999.90;;;;;;;;;;4997811;28;20322;-76
2022/11/23 06:10:07;;;;;;;1999.90;999.90;;;;;;;;;;5004152;28;20218;-75
2022/11/23 06:12:53;;;;;;;1999.90;999.90;;;;;;;;;;4998539;28;20246;-75
2022/11/23 06:15:38;;;;;;;1999.90;999.90;;;;;;;;;;5008823;28;20230;-75
2022/11/23 06:18:23;;;;;;;1999.90;999.90;;;;;;;;;;5003154;28;20857;-74
2022/11/23 06:21:07;;;;;;;1999.90;999.90;;;;;;;;;;4997151;28;20207;-75
2022/11/23 06:23:52;;;;;;;1999.90;999.90;;;;;;;;;;5011458;28;20211;-75
2022/11/23 06:26:37;;;;;;;1999.90;999.90;;;;;;;;;;5001850;28;20587;-76
2022/11/23 06:29:23;;;;;;;1999.90;999.90;;;;;;;;;;5010599;28;20679;-76
2022/11/23 06:32:08;;;;;;;1999.90;999.90;;;;;;;;;;5002692;28;20304;-75
2022/11/23 06:34:53;;;;;;;1999.90;999.90;;;;;;;;;;4994770;28;20207;-76
2022/11/23 06:37:38;;;;;;;1999.90;999.90;;;;;;;;;;4995060;28;20713;-74
2022/11/23 06:40:23;;;;;;;1999.90;999.90;;;;;;;;;;5005769;28;20221;-74
2022/11/23 06:43:08;;;;;;;1999.90;999.90;;;;;;;;;;5011365;28;20207;-75
2022/11/23 06:45:55;;;;;;;1999.90;999.90;;;;;;;;;;5002596;28;20274;-74
2022/11/23 06:48:42;;;;;;;1999.90;999.90;;;;;;;;;;5011760;28;20464;-75
2022/11/23 06:51:27;;;;;;;1999.90;999.90;;;;;;;;;;5013113;28;20215;-71
2022/11/23 06:54:12;;;;;;;1999.90;999.90;;;;;;;;;;5001565;28;20249;-75
2022/11/23 06:56:58;;;;;;;1999.90;999.90;;;;;;;;;;4995246;28;20214;-73
2022/11/23 06:59:44;;;;;;;1999.90;999.90;;;;;;;;;;4995217;28;20283;-73
2022/11/23 07:02:31;;;;;;;1999.90;999.90;;;;;;;;;;4993982;28;20207;-73
2022/11/23 07:05:16;;;;;;;1999.90;999.90;;;;;;;;;;5004841;28;20233;-73
2022/11/23 07:08:00;;;;;;;1999.90;999.90;;;;;;;;;;4994766;28;20496;-74
2022/11/23 07:10:46;;;;;;;1999.90;999.90;;;;;;;;;;4995291;28;20289;-72
2022/11/23 07:13:31;;;;;;;1999.90;999.90;;;;;;;;;;4994142;28;20333;-73
2022/11/23 07:16:16;;;;;;;1999.90;999.90;;;;;;;;;;4993907;28;20334;-73
2022/11/23 07:19:02;;;;;;;1999.90;999.90;;;;;;;;;;4994107;28;20234;-73
2022/11/23 07:21:47;;;;;;;1999.90;999.90;;;;;;;;;;4996930;28;20582;-73
2022/11/23 07:24:32;;;;;;;1999.90;999.90;;;;;;;;;;4994232;28;20218;-73
2022/11/23 07:27:17;;;;;;;1999.90;999.90;;;;;;;;;;4993950;28;20250;-73
2022/11/23 07:30:02;;;;;;;1999.90;999.90;;;;;;;;;;4994039;28;20296;-72
2022/11/23 07:32:47;;;;;;;1999.90;999.90;;;;;;;;;;4993689;28;20342;-73
2022/11/23 07:35:34;;;;;;;1999.90;999.90;;;;;;;;;;4993616;28;20207;-73
2022/11/23 07:38:19;;;;;;;1999.90;999.90;;;;;;;;;;4997073;28;20237;-73
2022/11/23 07:41:04;;;;;;;1999.90;999.90;;;;;;;;;;5013321;28;20284;-73
2022/11/23 07:43:49;;;;;;;1999.90;999.90;;;;;;;;;;5002449;28;20218;-73
2022/11/23 07:46:34;;;;;;;1999.90;999.90;;;;;;;;;;5004056;28;20209;-74
2022/11/23 07:49:19;;;;;;;1999.90;999.90;;;;;;;;;;5004932;28;20333;-74
2022/11/23 07:52:05;;;;;;;1999.90;999.90;;;;;;;;;;5002863;28;20229;-74
2022/11/23 07:54:50;;;;;;;1999.90;999.90;;;;;;;;;;5001597;28;20250;-73
2022/11/23 07:57:35;;;;;;;1999.90;999.90;;;;;;;;;;5000388;28;20617;-74
2022/11/23 08:00:20;;;;;;;1999.90;999.90;;;;;;;;;;4996148;28;20210;-73
2022/11/23 08:03:06;;;;;;;1999.90;999.90;;;;;;;;;;5000561;28;20214;-73
2022/11/23 08:05:50;;;;;;;1999.90;999.90;;;;;;;;;;5004140;28;20233;-67
2022/11/23 08:08:37;;;;;;;1999.90;999.90;;;;;;;;;;4994714;28;20777;-73
2022/11/23 08:11:22;;;;;;;1999.90;999.90;;;;;;;;;;5011006;28;20203;-73
2022/11/23 08:14:07;;;;;;;1999.90;999.90;;;;;;;;;;5002080;28;20230;-74
2022/11/23 08:16:52;;;;;;;1999.90;999.90;;;;;;;;;;5009198;28;20210;-73
2022/11/23 08:19:37;;;;;;;1999.90;999.90;;;;;;;;;;5000691;28;20789;-73
2022/11/23 08:22:22;;;;;;;1999.90;999.90;;;;;;;;;;5009326;28;20341;-73
2022/11/23 08:25:09;;;;;;;1999.90;999.90;;;;;;;;;;4993055;28;20210;-74
2022/11/23 08:27:54;;;;;;;1999.90;999.90;;;;;;;;;;4993570;28;20254;-73
2022/11/23 08:30:39;;;;;;;1999.90;999.90;;;;;;;;;;4993498;28;20276;-73
2022/11/23 08:33:27;;;;;;;1999.90;999.90;;;;;;;;;;4999812;28;20254;-73
2022/11/23 08:36:12;;;;;;;1999.90;999.90;;;;;;;;;;5010002;28;20249;-73
2022/11/23 08:38:57;;;;;;;1999.90;999.90;;;;;;;;;;4999452;28;20262;-73
2022/11/23 08:41:43;;;;;;;1999.90;999.90;;;;;;;;;;4995901;28;20318;-73
2022/11/23 08:44:28;;;;;;;1999.90;999.90;;;;;;;;;;5009457;28;20799;-74
2022/11/23 08:47:13;;;;;;;1999.90;999.90;;;;;;;;;;5003673;28;20241;-73
2022/11/23 08:49:58;;;;;;;1999.90;999.90;;;;;;;;;;5002406;28;20254;-72
2022/11/23 08:52:43;;;;;;;1999.90;999.90;;;;;;;;;;5005141;28;20211;-74
2022/11/23 08:55:28;;;;;;;1999.90;999.90;;;;;;;;;;5000862;28;20223;-73
2022/11/23 08:58:15;;;;;;;1999.90;999.90;;;;;;;;;;5002688;28;20340;-73
2022/11/23 09:00:59;;;;;;;1999.90;999.90;;;;;;;;;;5012035;28;20235;-74
2022/11/23 09:03:45;;;;;;;1999.90;999.90;;;;;;;;;;5012649;28;20205;-72
2022/11/23 09:06:32;;;;;;;1999.90;999.90;;;;;;;;;;4998803;28;20595;-73
2022/11/23 09:09:17;;;;;;;1999.90;999.90;;;;;;;;;;5009636;28;20214;-73
2022/11/23 09:12:02;;;;;;;1999.90;999.90;;;;;;;;;;5012407;28;20311;-71
2022/11/23 09:14:48;;;;;;;1999.90;999.90;;;;;;;;;;5008981;28;20221;-73
2022/11/23 09:17:33;;;;;;;1999.90;999.90;;;;;;;;;;4999863;28;20593;-73
2022/11/23 09:20:18;;;;;;;1999.90;999.90;;;;;;;;;;4992799;28;20578;-74
2022/11/23 09:23:03;;;;;;;1999.90;999.90;;;;;;;;;;5011420;28;20296;-73
2022/11/23 09:25:49;;;;;;;1999.90;999.90;;;;;;;;;;5010983;28;20419;-72
2022/11/23 09:28:34;;;;;;;1999.90;999.90;;;;;;;;;;5011843;28;20231;-74
2022/11/23 09:31:22;;;;;;;1999.90;999.90;;;;;;;;;;5011818;28;20207;-72
2022/11/23 09:34:07;;;;;;;1999.90;999.90;;;;;;;;;;5009008;28;20446;-71
2022/11/23 09:36:52;;;;;;;1999.90;999.90;;;;;;;;;;5010396;28;20218;-73
2022/11/23 09:39:37;;;;;;;1999.90;999.90;;;;;;;;;;5011878;28;20297;-72
2022/11/23 09:42:39;;;;;;;1999.90;999.90;;;;;;;;;;5011917;28;20206;-71
2022/11/23 09:45:28;;;;;;;1999.90;999.90;;;;;;;;;;5011280;28;20210;-72
2022/11/23 09:48:26;;;;;;;1999.90;999.90;;;;;;;;;;5008600;28;20418;-71
2022/11/23 09:51:14;;;;;;;1999.90;999.90;;;;;;;;;;5002089;28;20218;-72
2022/11/23 09:54:00;;;;;;;1999.90;999.90;;;;;;;;;;5007907;28;20276;-72
2022/11/23 09:56:48;;;;;;;1999.90;999.90;;;;;;;;;;4998759;28;20234;-74
2022/11/23 09:59:39;;;;;;;1999.90;999.90;;;;;;;;;;5007686;28;20210;-73
2022/11/23 10:02:27;;;;;;;1999.90;999.90;;;;;;;;;;5005368;28;20221;-72
2022/11/23 10:05:15;;;;;;;1999.90;999.90;;;;;;;;;;4999717;28;20211;-73
2022/11/23 10:08:04;;;;;;;1999.90;999.90;;;;;;;;;;4992261;28;20227;-72
2022/11/23 10:10:53;;;;;;;1999.90;999.90;;;;;;;;;;4992380;28;20351;-72
2022/11/23 10:13:42;;;;;;;1999.90;999.90;;;;;;;;;;4991892;28;20292;-73
2022/11/23 10:16:35;;;;;;;1999.90;999.90;;;;;;;;;;4991773;28;20210;-73
2022/11/23 10:19:23;;;;;;;1999.90;999.90;;;;;;;;;;4992310;28;20209;-72
2022/11/23 10:22:12;;;;;;;1999.90;999.90;;;;;;;;;;4992245;28;20211;-72
2022/11/23 10:24:58;;;;;;;1999.90;999.90;;;;;;;;;;4991916;28;20246;-73
2022/11/23 10:27:45;;;;;;;1999.90;999.90;;;;;;;;;;4992011;28;20237;-73
2022/11/23 10:30:30;;;;;;;1999.90;999.90;;;;;;;;;;4992188;28;20214;-73
2022/11/23 10:33:21;;;;;;;1999.90;999.90;;;;;;;;;;4991625;28;20432;-72
2022/11/23 10:36:09;;;;;;;1999.90;999.90;;;;;;;;;;4991764;28;20208;-74
2022/11/23 10:38:57;;;;;;;1999.90;999.90;;;;;;;;;;4994741;28;20238;-72
2022/11/23 10:41:43;;;;;;;1999.90;999.90;;;;;;;;;;4995560;28;20242;-73
2022/11/23 10:44:35;;;;;;;1999.90;999.90;;;;;;;;;;4995274;28;20208;-72
2022/11/23 10:47:39;;;;;;;1999.90;999.90;;;;;;;;;;4995234;28;20246;-73
2022/11/23 10:50:26;;;;;;;1999.90;999.90;;;;;;;;;;4995472;28;20230;-73
2022/11/23 10:53:20;;;;;;;1999.90;999.90;;;;;;;;;;4995392;28;20203;-72
2022/11/23 10:56:12;;;;;;;1999.90;999.90;;;;;;;;;;4995023;28;20724;-72
2022/11/23 10:58:57;;;;;;;1999.90;999.90;;;;;;;;;;4994916;28;20230;-72
2022/11/23 11:01:58;;;;;;;1999.90;999.90;;;;;;;;;;4994590;28;20927;-72
2022/11/23 11:04:43;;;;;;;1999.90;999.90;;;;;;;;;;4994904;28;20222;-73
2022/11/23 11:07:29;;;;;;;1999.90;999.90;;;;;;;;;;4995192;28;20246;-73
2022/11/23 11:10:32;;;;;;;1999.90;999.90;;;;;;;;;;4995104;28;20210;-73
2022/11/23 11:13:25;;;;;;;1999.90;999.90;;;;;;;;;;4994970;28;20206;-71
2022/11/23 11:16:18;;;;;;;1999.90;999.90;;;;;;;;;;4994734;28;20697;-72
2022/11/23 11:19:22;;;;;;;1999.90;999.90;;;;;;;;;;4994881;28;20230;-73
2022/11/23 11:22:29;;;;;;;1999.90;999.90;;;;;;;;;;4994616;28;20291;-73
2022/11/23 11:25:26;;;;;;;1999.90;999.90;;;;;;;;;;4994549;28;20675;-73
2022/11/23 11:28:20;;;;;;;1999.90;999.90;;;;;;;;;;4994357;28;20227;-72
2022/11/23 11:31:22;;;;;;;1999.90;999.90;;;;;;;;;;4994742;28;20212;-72
2022/11/23 11:34:11;;;;;;;1999.90;999.90;;;;;;;;;;4994448;28;20606;-72
2022/11/23 11:37:01;;;;;;;1999.90;999.90;;;;;;;;;;4994535;28;20211;-72
2022/11/23 11:39:49;;;;;;;1999.90;999.90;;;;;;;;;;4994619;28;20206;-73
2022/11/23 11:42:36;;;;;;;1999.90;999.90;;;;;;;;;;4994534;28;20705;-73
2022/11/23 11:45:24;;;;;;;1999.90;999.90;;;;;;;;;;4994207;28;20203;-73
2022/11/23 11:48:15;;;;;;;1999.90;999.90;;;;;;;;;;4994300;28;20230;-72
2022/11/23 11:51:03;;;;;;;1999.90;999.90;;;;;;;;;;4993866;28;20268;-73
2022/11/23 11:53:51;;;;;;;1999.90;999.90;;;;;;;;;;4993709;28;20421;-72
2022/11/23 11:56:38;;;;;;;1999.90;999.90;;;;;;;;;;4994011;28;20698;-73
2022/11/23 11:59:26;;;;;;;1999.90;999.90;;;;;;;;;;4994211;28;20291;-73
2022/11/23 12:02:18;;;;;;;1999.90;999.90;;;;;;;;;;4994145;28;20210;-73
2022/11/23 12:05:10;;;;;;;1999.90;999.90;;;;;;;;;;4993856;28;20203;-71
2022/11/23 12:08:01;;;;;;;1999.90;999.90;;;;;;;;;;4993880;28;20219;-72
2022/11/23 12:10:48;;;;;;;1999.90;999.90;;;;;;;;;;4993861;28;20577;-72
2022/11/23 12:13:34;;;;;;;1999.90;999.90;;;;;;;;;;4993920;28;20569;-71
2022/11/23 12:16:22;;;;;;;1999.90;999.90;;;;;;;;;;4993568;28;20331;-72
2022/11/23 12:19:14;;;;;;;1999.90;999.90;;;;;;;;;;4993294;28;20908;-72
2022/11/23 12:22:08;;;;;;;1999.90;999.90;;;;;;;;;;4993755;28;20239;-71
2022/11/23 12:24:58;;;;;;;1999.90;999.90;;;;;;;;;;4993381;28;20289;-72
2022/11/23 12:27:46;;;;;;;1999.90;999.90;;;;;;;;;;4993645;28;20223;-72
2022/11/23 12:30:37;;;;;;;1999.90;999.90;;;;;;;;;;4993333;28;20203;-72
2022/11/23 12:33:38;;;;;;;1999.90;999.90;;;;;;;;;;4993728;28;20702;-72
2022/11/23 12:36:29;;;;;;;1999.90;999.90;;;;;;;;;;4993240;28;20211;-72
2022/11/23 12:39:22;;;;;;;1999.90;999.90;;;;;;;;;;4993214;28;20316;-72
2022/11/23 12:42:10;;;;;;;1999.90;999.90;;;;;;;;;;4993083;28;20207;-72
2022/11/23 12:45:00;;;;;;;1999.90;999.90;;;;;;;;;;4993138;28;20208;-72
2022/11/23 12:47:52;;;;;;;1999.90;999.90;;;;;;;;;;4993244;28;20748;-72
2022/11/23 12:50:39;;;;;;;1999.90;999.90;;;;;;;;;;4993274;28;20203;-72
2022/11/23 12:53:30;;;;;;;1999.90;999.90;;;;;;;;;;4992927;28;20202;-72
2022/11/23 12:56:20;;;;;;;1999.90;999.90;;;;;;;;;;4992795;28;20200;-72
2022/11/23 12:59:08;;;;;;;1999.90;999.90;;;;;;;;;;4993031;28;20232;-72
2022/11/23 13:01:55;;;;;;;1999.90;999.90;;;;;;;;;;4992282;28;20269;-72
2022/11/23 13:05:01;;;;;;;1999.90;999.90;;;;;;;;;;4992522;28;20211;-71
2022/11/23 13:07:56;;;;;;;1999.90;999.90;;;;;;;;;;4992938;28;20218;-72
2022/11/23 13:10:53;;;;;;;1999.90;999.90;;;;;;;;;;4992193;28;20413;-72
2022/11/23 13:13:49;;;;;;;1999.90;999.90;;;;;;;;;;4992983;28;20489;-72
2022/11/23 13:16:40;;;;;;;1999.90;999.90;;;;;;;;;;4992585;28;20274;-72
2022/11/23 13:19:39;;;;;;;1999.90;999.90;;;;;;;;;;4992780;28;20259;-72
2022/11/23 13:22:24;;;;;;;1999.90;999.90;;;;;;;;;;4992904;28;20629;-72
2022/11/23 13:25:30;;;;;;;1999.90;999.90;;;;;;;;;;4992411;28;20574;-72
2022/11/23 13:28:28;;;;;;;1999.90;999.90;;;;;;;;;;4992369;28;20246;-72
2022/11/23 13:31:25;;;;;;;1999.90;999.90;;;;;;;;;;4992574;28;20211;-72
2022/11/23 13:34:25;;;;;;;1999.90;999.90;;;;;;;;;;4992491;28;20595;-72
2022/11/23 13:37:10;;;;;;;1999.90;999.90;;;;;;;;;;4991007;28;20392;-73
2022/11/23 13:40:02;;;;;;;1999.90;999.90;;;;;;;;;;4992531;28;20219;-72
2022/11/23 13:42:47;;;;;;;1999.90;999.90;;;;;;;;;;4992564;28;20218;-72
2022/11/23 13:45:35;;;;;;;1999.90;999.90;;;;;;;;;;4992295;28;20281;-72
2022/11/23 13:48:21;;;;;;;1999.90;999.90;;;;;;;;;;4992396;28;20224;-72
2022/11/23 13:51:06;;;;;;;1999.90;999.90;;;;;;;;;;4992272;28;20207;-72
2022/11/23 13:53:52;;;;;;;1999.90;999.90;;;;;;;;;;4992468;28;20585;-72
2022/11/23 13:56:39;;;;;;;1999.90;999.90;;;;;;;;;;4992269;28;20340;-72
2022/11/23 13:59:27;;;;;;;1999.90;999.90;;;;;;;;;;4992433;28;20206;-71
2022/11/23 14:02:26;;;;;;;1999.90;999.90;;;;;;;;;;4992129;28;20207;-72
2022/11/23 14:05:52;;;;;;;1999.90;999.90;;;;;;;;;;4992060;28;20689;-73
2022/11/23 14:08:38;;;;;;;1999.90;999.90;;;;;;;;;;4992261;28;20239;-72
2022/11/23 14:11:23;;;;;;;1999.90;999.90;;;;;;;;;;4992527;28;20203;-72
2022/11/23 14:14:15;;;;;;;1999.90;999.90;;;;;;;;;;4995284;28;20686;-72
2022/11/23 14:17:24;;;;;;;1999.90;999.90;;;;;;;;;;4995675;28;20207;-72
2022/11/23 14:20:24;;;;;;;1999.90;999.90;;;;;;;;;;4988719;28;20701;-72
2022/11/23 14:23:20;;;;;;;1999.90;999.90;;;;;;;;;;4990817;28;20245;-72
2022/11/23 14:26:14;;;;;;;1999.90;999.90;;;;;;;;;;4995610;28;20207;-72
2022/11/23 14:29:07;;;;;;;1999.90;999.90;;;;;;;;;;4995850;28;20347;-72
2022/11/23 14:31:59;;;;;;;1999.90;999.90;;;;;;;;;;4995887;28;20267;-72
2022/11/23 14:34:50;;;;;;;1999.90;999.90;;;;;;;;;;4995470;28;20266;-72
2022/11/23 14:37:39;;;;;;;1999.90;999.90;;;;;;;;;;4995252;28;20331;-71
2022/11/23 14:40:27;;;;;;;1999.90;999.90;;;;;;;;;;4995709;28;20208;-72
2022/11/23 14:43:17;;;;;;;1999.90;999.90;;;;;;;;;;4995675;28;20212;-72
2022/11/23 14:46:03;;;;;;;1999.90;999.90;;;;;;;;;;4995233;28;20672;-72
2022/11/23 14:48:48;;;;;;;1999.90;999.90;;;;;;;;;;4995195;28;20298;-72
2022/11/23 14:51:33;;;;;;;1999.90;999.90;;;;;;;;;;4995041;28;20826;-72
2022/11/23 14:54:19;;;;;;;1999.90;999.90;;;;;;;;;;4995079;28;20199;-71
2022/11/23 14:57:06;;;;;;;1999.90;999.90;;;;;;;;;;4995339;28;20223;-72
2022/11/23 14:59:54;;;;;;;1999.90;999.90;;;;;;;;;;4995100;28;20211;-72
2022/11/23 15:02:40;;;;;;;1999.90;999.90;;;;;;;;;;4995057;28;20210;-72
2022/11/23 15:05:27;;;;;;;1999.90;999.90;;;;;;;;;;4994974;28;20229;-72
2022/11/23 15:08:15;;;;;;;1999.90;999.90;;;;;;;;;;4995034;28;20594;-72
2022/11/23 15:11:03;;;;;;;1999.90;999.90;;;;;;;;;;4995176;28;20207;-72
2022/11/23 15:13:50;;;;;;;1999.90;999.90;;;;;;;;;;4995086;28;20207;-72
2022/11/23 15:16:38;;;;;;;1999.90;999.90;;;;;;;;;;4994553;28;20744;-72
2022/11/23 15:19:27;;;;;;;1999.90;999.90;;;;;;;;;;4994718;28;20262;-71
2022/11/23 15:22:14;;;;;;;1999.90;999.90;;;;;;;;;;4994921;28;20754;-72
2022/11/23 15:25:05;;;;;;;1999.90;999.90;;;;;;;;;;4993708;28;20209;-71
2022/11/23 15:27:50;;;;;;;1999.90;999.90;;;;;;;;;;4994690;28;20641;-72
2022/11/23 15:30:37;;;;;;;1999.90;999.90;;;;;;;;;;4994836;28;20350;-72
2022/11/23 15:33:23;;;;;;;1999.90;999.90;;;;;;;;;;4994780;28;20700;-72
2022/11/23 15:36:08;;;;;;;1999.90;999.90;;;;;;;;;;4994024;28;20217;-71
2022/11/23 15:38:54;;;;;;;1999.90;999.90;;;;;;;;;;4994490;28;20605;-72
2022/11/23 15:41:39;;;;;;;1999.90;999.90;;;;;;;;;;4994589;28;20327;-71
2022/11/23 15:44:25;;;;;;;1999.90;999.90;;;;;;;;;;4994064;28;20203;-72
2022/11/23 15:47:15;;;;;;;1999.90;999.90;;;;;;;;;;4994482;28;20297;-71
2022/11/23 15:50:01;;;;;;;1999.90;999.90;;;;;;;;;;4994374;28;20208;-72
2022/11/23 15:52:47;;;;;;;1999.90;999.90;;;;;;;;;;4994247;28;20243;-71
2022/11/23 15:55:32;;;;;;;1999.90;999.90;;;;;;;;;;4993940;28;20230;-71
2022/11/23 15:58:18;;;;;;;1999.90;999.90;;;;;;;;;;4994262;28;20230;-71
2022/11/23 16:01:05;;;;;;;1999.90;999.90;;;;;;;;;;4994168;28;20748;-71
2022/11/23 16:03:54;;;;;;;1999.90;999.90;;;;;;;;;;4994205;28;20683;-72
2022/11/23 16:06:40;;;;;;;1999.90;999.90;;;;;;;;;;4993926;28;20199;-73
2022/11/23 16:09:38;;;;;;;1999.90;999.90;;;;;;;;;;4993151;28;20409;-73
2022/11/23 16:12:25;;;;;;;1999.90;999.90;;;;;;;;;;4994640;28;20199;-71
2022/11/23 16:15:31;;;;;;;1999.90;999.90;;;;;;;;;;4993678;28;20219;-73
2022/11/23 16:18:23;;;;;;;1999.90;999.90;;;;;;;;;;4993806;28;20246;-72
2022/11/23 16:21:13;;;;;;;1999.90;999.90;;;;;;;;;;4993824;28;20245;-71
2022/11/23 16:23:59;;;;;;;1999.90;999.90;;;;;;;;;;4994837;28;20207;-71
2022/11/23 16:26:45;;;;;;;1999.90;999.90;;;;;;;;;;4994705;28;20203;-71
2022/11/23 16:29:33;;;;;;;1999.90;999.90;;;;;;;;;;4993409;28;20285;-71
2022/11/23 16:32:22;;;;;;;1999.90;999.90;;;;;;;;;;4993544;28;20209;-71
2022/11/23 16:35:15;;;;;;;1999.90;999.90;;;;;;;;;;4992971;28;20351;-71
2022/11/23 16:38:01;;;;;;;1999.90;999.90;;;;;;;;;;4993440;28;20230;-71
2022/11/23 16:40:47;;;;;;;1999.90;999.90;;;;;;;;;;4993217;28;20705;-71
2022/11/23 16:43:31;;;;;;;1999.90;999.90;;;;;;;;;;4993417;28;20203;-71
2022/11/23 16:46:16;;;;;;;1999.90;999.90;;;;;;;;;;4993073;28;20269;-71
2022/11/23 16:49:01;;;;;;;1999.90;999.90;;;;;;;;;;4993171;28;20290;-71
2022/11/23 16:51:49;;;;;;;1999.90;999.90;;;;;;;;;;4993047;28;20204;-71
2022/11/23 16:54:36;;;;;;;1999.90;999.90;;;;;;;;;;4992988;28;20203;-71
2022/11/23 16:57:27;;;;;;;1999.90;999.90;;;;;;;;;;4993187;28;20784;-73
2022/11/23 17:00:14;;;;;;;1999.90;999.90;;;;;;;;;;4993176;28;20211;-70
2022/11/23 17:02:59;;;;;;;1999.90;999.90;;;;;;;;;;4992850;28;20204;-71
2022/11/23 17:05:44;;;;;;;1999.90;999.90;;;;;;;;;;4992662;28;20204;-70
2022/11/23 17:08:29;;;;;;;1999.90;999.90;;;;;;;;;;4993078;28;20599;-71
2022/11/23 17:11:16;;;;;;;1999.90;999.90;;;;;;;;;;4992973;28;20230;-71
2022/11/23 17:14:01;;;;;;;1999.90;999.90;;;;;;;;;;4992564;28;20210;-71
2022/11/23 17:16:46;;;;;;;1999.90;999.90;;;;;;;;;;4992658;28;20234;-73
2022/11/23 17:19:31;;;;;;;1999.90;999.90;;;;;;;;;;4992759;28;20578;-72
2022/11/23 17:22:16;;;;;;;1999.90;999.90;;;;;;;;;;4992813;28;20749;-73
2022/11/23 17:25:01;;;;;;;1999.90;999.90;;;;;;;;;;4992464;28;20223;-72
2022/11/23 17:27:47;;;;;;;1999.90;999.90;;;;;;;;;;4992043;28;20420;-73
2022/11/23 17:30:32;;;;;;;1999.90;999.90;;;;;;;;;;4992827;28;20207;-73
2022/11/23 17:33:17;;;;;;;1999.90;999.90;;;;;;;;;;4992739;28;20207;-73
2022/11/23 17:36:02;;;;;;;1999.90;999.90;;;;;;;;;;4992046;28;20226;-72
2022/11/23 17:38:48;;;;;;;1999.90;999.90;;;;;;;;;;4992514;28;20840;-72
2022/11/23 17:41:33;;;;;;;1999.90;999.90;;;;;;;;;;4992628;28;20323;-72
2022/11/23 17:44:19;;;;;;;1999.90;999.90;;;;;;;;;;4992338;28;20203;-73
2022/11/23 17:47:04;;;;;;;1999.90;999.90;;;;;;;;;;4992614;28;20281;-70
2022/11/23 17:49:49;;;;;;;1999.90;999.90;;;;;;;;;;4996671;28;20211;-71
2022/11/23 17:52:34;;;;;;;1999.90;999.90;;;;;;;;;;4996651;28;20339;-70
2022/11/23 17:55:19;;;;;;;1999.90;999.90;;;;;;;;;;4996165;28;20211;-71
2022/11/23 17:58:04;;;;;;;1999.90;999.90;;;;;;;;;;4996466;28;20246;-71
2022/11/23 18:00:51;;;;;;;1999.90;999.90;;;;;;;;;;4996648;28;20697;-71
2022/11/23 18:03:35;;;;;;;1999.90;999.90;;;;;;;;;;4996361;28;20207;-71
2022/11/23 18:06:21;;;;;;;1999.90;999.90;;;;;;;;;;4996509;28;20246;-71
2022/11/23 18:09:06;;;;;;;1999.90;999.90;;;;;;;;;;4996002;28;20717;-71
2022/11/23 18:11:51;;;;;;;1999.90;999.90;;;;;;;;;;4996021;28;20207;-72